X  Sluiten METAR luchtvaart weer gegevens      EDDK Cologne Bonn Airport
Temperatuur
6°C Temperatuur
2°C Dauwpunt
76% Vochtigheid



Wind
8 MPH
13 KM/U
4 M/S
7 KTS



140°
ZO
Huidig weer

Helder Helder
Luchtdruk 1019.98 (hPa) - 30.12 (inHg)
Zicht 6 (mijl) - 9.7 (km)
Vliegveld
Vliegveld code EDDK

Locatie : Cologne Bonn Airport
Afstand: 56 (mi)

Metar:
EDDK 281950Z AUTO 14007KT CAVOK 06/02 Q1020 NOSIG

Tijd: 2024-02-28 20:50 CET